sensor_id;sensor_type;location;lat;lon;timestamp;temperature;humidity
21590;DHT22;10957;50.968;6.828;2023-04-24T00:03:43;11.00;1.00
21590;DHT22;10957;50.968;6.828;2023-04-24T00:08:44;10.70;1.00
21590;DHT22;10957;50.968;6.828;2023-04-24T00:13:45;10.90;1.00
21590;DHT22;10957;50.968;6.828;2023-04-24T00:18:46;10.90;1.00
21590;DHT22;10957;50.968;6.828;2023-04-24T00:23:48;11.10;1.00
21590;DHT22;10957;50.968;6.828;2023-04-24T00:28:50;10.90;1.00
21590;DHT22;10957;50.968;6.828;2023-04-24T00:33:51;11.10;1.00
21590;DHT22;10957;50.968;6.828;2023-04-24T00:38:55;11.20;1.00
21590;DHT22;10957;50.968;6.828;2023-04-24T00:43:56;11.10;1.00
21590;DHT22;10957;50.968;6.828;2023-04-24T00:48:59;11.00;1.00
21590;DHT22;10957;50.968;6.828;2023-04-24T00:54:01;11.10;1.00
21590;DHT22;10957;50.968;6.828;2023-04-24T00:59:03;10.90;1.00
21590;DHT22;10957;50.968;6.828;2023-04-24T01:04:05;11.00;1.00
21590;DHT22;10957;50.968;6.828;2023-04-24T01:09:10;11.10;1.00
21590;DHT22;10957;50.968;6.828;2023-04-24T01:14:12;11.00;1.00
21590;DHT22;10957;50.968;6.828;2023-04-24T01:19:15;10.90;1.00
21590;DHT22;10957;50.968;6.828;2023-04-24T01:24:16;11.00;1.00
21590;DHT22;10957;50.968;6.828;2023-04-24T01:29:20;10.90;1.00
21590;DHT22;10957;50.968;6.828;2023-04-24T01:34:21;10.60;1.00
21590;DHT22;10957;50.968;6.828;2023-04-24T01:39:23;10.60;1.00
21590;DHT22;10957;50.968;6.828;2023-04-24T01:44:28;10.50;1.00
21590;DHT22;10957;50.968;6.828;2023-04-24T01:49:29;10.10;1.00
21590;DHT22;10957;50.968;6.828;2023-04-24T01:54:31;10.00;1.00
21590;DHT22;10957;50.968;6.828;2023-04-24T01:59:33;9.70;1.00
21590;DHT22;10957;50.968;6.828;2023-04-24T02:04:35;9.50;1.00
21590;DHT22;10957;50.968;6.828;2023-04-24T02:09:36;9.40;1.00
21590;DHT22;10957;50.968;6.828;2023-04-24T02:14:38;9.40;1.00
21590;DHT22;10957;50.968;6.828;2023-04-24T02:19:39;9.40;1.00
21590;DHT22;10957;50.968;6.828;2023-04-24T02:24:41;9.20;1.00
21590;DHT22;10957;50.968;6.828;2023-04-24T02:29:42;9.30;1.00
21590;DHT22;10957;50.968;6.828;2023-04-24T02:34:43;9.30;1.00
21590;DHT22;10957;50.968;6.828;2023-04-24T02:39:45;9.20;1.00
21590;DHT22;10957;50.968;6.828;2023-04-24T02:44:46;9.40;1.00
21590;DHT22;10957;50.968;6.828;2023-04-24T02:49:47;9.30;1.00
21590;DHT22;10957;50.968;6.828;2023-04-24T02:54:49;9.50;1.00
21590;DHT22;10957;50.968;6.828;2023-04-24T02:59:50;9.50;1.00
21590;DHT22;10957;50.968;6.828;2023-04-24T03:04:51;9.70;1.00
21590;DHT22;10957;50.968;6.828;2023-04-24T03:09:53;9.30;1.00
21590;DHT22;10957;50.968;6.828;2023-04-24T03:14:54;9.40;1.00
21590;DHT22;10957;50.968;6.828;2023-04-24T03:19:55;9.30;1.00
21590;DHT22;10957;50.968;6.828;2023-04-24T03:24:57;9.10;1.00
21590;DHT22;10957;50.968;6.828;2023-04-24T03:29:58;9.50;1.00
21590;DHT22;10957;50.968;6.828;2023-04-24T03:35:08;9.50;1.00
21590;DHT22;10957;50.968;6.828;2023-04-24T03:40:10;9.30;1.00
21590;DHT22;10957;50.968;6.828;2023-04-24T03:45:12;9.00;1.00
21590;DHT22;10957;50.968;6.828;2023-04-24T03:50:17;9.10;1.00
21590;DHT22;10957;50.968;6.828;2023-04-24T03:55:19;9.30;1.00
21590;DHT22;10957;50.968;6.828;2023-04-24T04:00:22;9.30;1.00
21590;DHT22;10957;50.968;6.828;2023-04-24T04:05:35;9.20;1.00
21590;DHT22;10957;50.968;6.828;2023-04-24T04:10:36;9.20;1.00
21590;DHT22;10957;50.968;6.828;2023-04-24T04:15:39;9.40;1.00
21590;DHT22;10957;50.968;6.828;2023-04-24T04:20:41;9.30;1.00
21590;DHT22;10957;50.968;6.828;2023-04-24T04:25:43;9.00;1.00
21590;DHT22;10957;50.968;6.828;2023-04-24T04:30:45;9.00;1.00
21590;DHT22;10957;50.968;6.828;2023-04-24T04:35:48;9.20;1.00
21590;DHT22;10957;50.968;6.828;2023-04-24T04:40:50;9.40;1.00
21590;DHT22;10957;50.968;6.828;2023-04-24T04:45:54;9.00;1.00
21590;DHT22;10957;50.968;6.828;2023-04-24T04:51:17;9.00;1.00
21590;DHT22;10957;50.968;6.828;2023-04-24T04:56:18;9.30;1.00
21590;DHT22;10957;50.968;6.828;2023-04-24T05:01:21;9.10;1.00
21590;DHT22;10957;50.968;6.828;2023-04-24T05:06:25;9.10;1.00
21590;DHT22;10957;50.968;6.828;2023-04-24T05:11:27;9.40;1.00
21590;DHT22;10957;50.968;6.828;2023-04-24T05:16:31;9.30;1.00
21590;DHT22;10957;50.968;6.828;2023-04-24T05:21:33;9.30;1.00
21590;DHT22;10957;50.968;6.828;2023-04-24T05:26:35;9.40;1.00
21590;DHT22;10957;50.968;6.828;2023-04-24T05:31:37;9.30;1.00
21590;DHT22;10957;50.968;6.828;2023-04-24T05:36:38;9.30;1.00
21590;DHT22;10957;50.968;6.828;2023-04-24T05:41:40;9.10;1.00
21590;DHT22;10957;50.968;6.828;2023-04-24T05:46:41;9.00;1.00
21590;DHT22;10957;50.968;6.828;2023-04-24T05:51:44;9.20;1.00
21590;DHT22;10957;50.968;6.828;2023-04-24T05:56:46;9.30;1.00
21590;DHT22;10957;50.968;6.828;2023-04-24T06:01:53;9.20;1.00
21590;DHT22;10957;50.968;6.828;2023-04-24T06:06:56;9.10;1.00
21590;DHT22;10957;50.968;6.828;2023-04-24T06:11:58;9.20;1.00
21590;DHT22;10957;50.968;6.828;2023-04-24T06:17:05;9.40;1.00
21590;DHT22;10957;50.968;6.828;2023-04-24T06:22:11;9.40;1.00
21590;DHT22;10957;50.968;6.828;2023-04-24T06:27:12;9.20;1.00
21590;DHT22;10957;50.968;6.828;2023-04-24T06:32:15;9.00;1.00
21590;DHT22;10957;50.968;6.828;2023-04-24T06:37:17;8.90;1.00
21590;DHT22;10957;50.968;6.828;2023-04-24T06:42:19;8.90;1.00
21590;DHT22;10957;50.968;6.828;2023-04-24T06:47:24;8.80;1.00
21590;DHT22;10957;50.968;6.828;2023-04-24T06:52:25;8.90;53.20
21590;DHT22;10957;50.968;6.828;2023-04-24T06:57:27;8.70;99.90
21590;DHT22;10957;50.968;6.828;2023-04-24T07:02:28;8.80;99.90
21590;DHT22;10957;50.968;6.828;2023-04-24T07:07:29;8.70;99.90
21590;DHT22;10957;50.968;6.828;2023-04-24T07:12:30;8.70;99.90
21590;DHT22;10957;50.968;6.828;2023-04-24T07:17:32;8.50;99.90
21590;DHT22;10957;50.968;6.828;2023-04-24T07:22:34;8.90;99.90
21590;DHT22;10957;50.968;6.828;2023-04-24T07:27:35;8.70;1.00
21590;DHT22;10957;50.968;6.828;2023-04-24T07:32:37;8.70;1.00
21590;DHT22;10957;50.968;6.828;2023-04-24T07:37:38;8.70;1.00
21590;DHT22;10957;50.968;6.828;2023-04-24T07:42:39;8.60;1.00
21590;DHT22;10957;50.968;6.828;2023-04-24T07:47:42;8.20;1.00
21590;DHT22;10957;50.968;6.828;2023-04-24T07:52:44;8.50;1.00
21590;DHT22;10957;50.968;6.828;2023-04-24T07:57:46;8.20;1.00
21590;DHT22;10957;50.968;6.828;2023-04-24T08:02:47;8.10;1.00
21590;DHT22;10957;50.968;6.828;2023-04-24T08:07:48;8.10;1.00
21590;DHT22;10957;50.968;6.828;2023-04-24T08:12:51;7.90;1.00
21590;DHT22;10957;50.968;6.828;2023-04-24T08:17:52;7.80;1.00
21590;DHT22;10957;50.968;6.828;2023-04-24T08:22:54;7.60;1.00
21590;DHT22;10957;50.968;6.828;2023-04-24T08:27:56;8.00;1.00
21590;DHT22;10957;50.968;6.828;2023-04-24T08:32:57;7.70;1.00
21590;DHT22;10957;50.968;6.828;2023-04-24T08:37:59;7.60;1.00
21590;DHT22;10957;50.968;6.828;2023-04-24T08:43:00;7.70;1.00
21590;DHT22;10957;50.968;6.828;2023-04-24T08:48:02;7.60;1.00
21590;DHT22;10957;50.968;6.828;2023-04-24T08:53:06;7.90;1.00
21590;DHT22;10957;50.968;6.828;2023-04-24T08:58:08;7.80;1.00
21590;DHT22;10957;50.968;6.828;2023-04-24T09:03:10;7.60;1.00
21590;DHT22;10957;50.968;6.828;2023-04-24T09:08:13;7.80;1.00
21590;DHT22;10957;50.968;6.828;2023-04-24T09:13:14;7.90;1.00
21590;DHT22;10957;50.968;6.828;2023-04-24T09:18:17;7.40;1.00
21590;DHT22;10957;50.968;6.828;2023-04-24T09:23:18;8.20;1.00
21590;DHT22;10957;50.968;6.828;2023-04-24T09:28:25;7.90;1.00
21590;DHT22;10957;50.968;6.828;2023-04-24T09:33:27;8.20;1.00
21590;DHT22;10957;50.968;6.828;2023-04-24T09:38:36;8.30;1.00
21590;DHT22;10957;50.968;6.828;2023-04-24T09:43:38;8.40;1.00
21590;DHT22;10957;50.968;6.828;2023-04-24T09:48:39;8.40;1.00
21590;DHT22;10957;50.968;6.828;2023-04-24T09:53:46;8.60;1.00
21590;DHT22;10957;50.968;6.828;2023-04-24T09:58:50;8.60;1.00
21590;DHT22;10957;50.968;6.828;2023-04-24T10:03:51;8.90;1.00
21590;DHT22;10957;50.968;6.828;2023-04-24T10:08:53;8.90;1.00
21590;DHT22;10957;50.968;6.828;2023-04-24T10:13:54;9.10;1.00
21590;DHT22;10957;50.968;6.828;2023-04-24T10:18:59;9.60;1.00
21590;DHT22;10957;50.968;6.828;2023-04-24T10:24:01;9.40;1.00
21590;DHT22;10957;50.968;6.828;2023-04-24T10:29:05;9.60;1.00
21590;DHT22;10957;50.968;6.828;2023-04-24T10:34:11;9.40;1.00
21590;DHT22;10957;50.968;6.828;2023-04-24T10:39:13;9.70;1.00
21590;DHT22;10957;50.968;6.828;2023-04-24T10:44:22;9.70;99.90
21590;DHT22;10957;50.968;6.828;2023-04-24T10:49:30;9.90;1.00
21590;DHT22;10957;50.968;6.828;2023-04-24T10:54:44;9.90;99.90
21590;DHT22;10957;50.968;6.828;2023-04-24T10:59:46;10.50;99.90
21590;DHT22;10957;50.968;6.828;2023-04-24T11:04:51;9.70;99.90
21590;DHT22;10957;50.968;6.828;2023-04-24T11:09:58;9.50;99.90
21590;DHT22;10957;50.968;6.828;2023-04-24T11:15:01;9.70;99.90
21590;DHT22;10957;50.968;6.828;2023-04-24T11:20:08;9.80;99.90
21590;DHT22;10957;50.968;6.828;2023-04-24T11:25:15;9.80;99.90
21590;DHT22;10957;50.968;6.828;2023-04-24T11:30:19;10.50;99.90
21590;DHT22;10957;50.968;6.828;2023-04-24T11:35:22;10.00;99.90
21590;DHT22;10957;50.968;6.828;2023-04-24T11:40:25;9.90;99.90
21590;DHT22;10957;50.968;6.828;2023-04-24T11:45:29;9.60;99.90
21590;DHT22;10957;50.968;6.828;2023-04-24T11:50:30;9.80;99.90
21590;DHT22;10957;50.968;6.828;2023-04-24T11:55:32;10.30;99.90
21590;DHT22;10957;50.968;6.828;2023-04-24T12:00:33;10.60;99.90
21590;DHT22;10957;50.968;6.828;2023-04-24T12:05:35;11.00;99.90
21590;DHT22;10957;50.968;6.828;2023-04-24T12:10:36;10.70;99.90
21590;DHT22;10957;50.968;6.828;2023-04-24T12:15:40;10.30;99.90
21590;DHT22;10957;50.968;6.828;2023-04-24T12:20:41;10.50;99.90
21590;DHT22;10957;50.968;6.828;2023-04-24T12:25:42;11.00;99.90
21590;DHT22;10957;50.968;6.828;2023-04-24T12:30:47;11.30;91.90
21590;DHT22;10957;50.968;6.828;2023-04-24T12:35:52;11.20;20.40
21590;DHT22;10957;50.968;6.828;2023-04-24T12:41:06;11.20;5.60
21590;DHT22;10957;50.968;6.828;2023-04-24T12:46:07;10.70;11.20
21590;DHT22;10957;50.968;6.828;2023-04-24T12:51:08;10.40;1.00
21590;DHT22;10957;50.968;6.828;2023-04-24T12:56:09;10.50;1.00
21590;DHT22;10957;50.968;6.828;2023-04-24T13:01:11;11.00;14.60
21590;DHT22;10957;50.968;6.828;2023-04-24T13:06:12;10.90;1.00
21590;DHT22;10957;50.968;6.828;2023-04-24T13:11:14;11.70;1.00
21590;DHT22;10957;50.968;6.828;2023-04-24T13:16:15;11.30;1.00
21590;DHT22;10957;50.968;6.828;2023-04-24T13:21:16;11.80;1.00
21590;DHT22;10957;50.968;6.828;2023-04-24T13:26:18;12.00;1.00
21590;DHT22;10957;50.968;6.828;2023-04-24T13:31:19;12.60;1.00
21590;DHT22;10957;50.968;6.828;2023-04-24T13:36:20;12.80;1.00
21590;DHT22;10957;50.968;6.828;2023-04-24T13:41:21;11.70;1.00
21590;DHT22;10957;50.968;6.828;2023-04-24T13:46:23;11.80;1.00
21590;DHT22;10957;50.968;6.828;2023-04-24T13:51:25;11.90;1.00
21590;DHT22;10957;50.968;6.828;2023-04-24T13:56:30;11.90;1.00
21590;DHT22;10957;50.968;6.828;2023-04-24T14:01:34;12.00;1.00
21590;DHT22;10957;50.968;6.828;2023-04-24T14:06:36;12.30;1.00
21590;DHT22;10957;50.968;6.828;2023-04-24T14:11:37;12.50;1.00
21590;DHT22;10957;50.968;6.828;2023-04-24T14:16:39;12.80;1.00
21590;DHT22;10957;50.968;6.828;2023-04-24T14:21:40;12.40;1.00
21590;DHT22;10957;50.968;6.828;2023-04-24T14:26:41;11.80;1.00
21590;DHT22;10957;50.968;6.828;2023-04-24T14:31:42;12.40;1.00
21590;DHT22;10957;50.968;6.828;2023-04-24T14:36:44;12.90;1.00
21590;DHT22;10957;50.968;6.828;2023-04-24T14:41:45;13.10;1.00
21590;DHT22;10957;50.968;6.828;2023-04-24T14:46:46;12.70;1.00
21590;DHT22;10957;50.968;6.828;2023-04-24T14:51:47;13.10;1.00
21590;DHT22;10957;50.968;6.828;2023-04-24T14:56:49;12.70;1.00
21590;DHT22;10957;50.968;6.828;2023-04-24T15:01:50;12.80;1.00
21590;DHT22;10957;50.968;6.828;2023-04-24T15:06:54;13.30;1.00
21590;DHT22;10957;50.968;6.828;2023-04-24T15:11:56;13.10;1.00
21590;DHT22;10957;50.968;6.828;2023-04-24T15:16:58;12.90;1.00
21590;DHT22;10957;50.968;6.828;2023-04-24T15:21:59;13.10;1.00
21590;DHT22;10957;50.968;6.828;2023-04-24T15:27:01;12.90;1.00
21590;DHT22;10957;50.968;6.828;2023-04-24T15:32:02;12.30;1.00
21590;DHT22;10957;50.968;6.828;2023-04-24T15:37:03;13.00;1.00
21590;DHT22;10957;50.968;6.828;2023-04-24T15:42:05;12.40;1.00
21590;DHT22;10957;50.968;6.828;2023-04-24T15:47:06;12.40;1.00
21590;DHT22;10957;50.968;6.828;2023-04-24T15:52:07;12.30;1.00
21590;DHT22;10957;50.968;6.828;2023-04-24T15:57:11;12.90;1.00
21590;DHT22;10957;50.968;6.828;2023-04-24T16:02:13;11.90;1.00
21590;DHT22;10957;50.968;6.828;2023-04-24T16:07:21;12.00;1.00
21590;DHT22;10957;50.968;6.828;2023-04-24T16:12:22;12.10;99.90
21590;DHT22;10957;50.968;6.828;2023-04-24T16:17:27;11.60;1.00
21590;DHT22;10957;50.968;6.828;2023-04-24T16:22:28;12.00;1.00
21590;DHT22;10957;50.968;6.828;2023-04-24T16:27:32;11.70;1.00
21590;DHT22;10957;50.968;6.828;2023-04-24T16:32:33;11.90;1.00
21590;DHT22;10957;50.968;6.828;2023-04-24T16:37:34;11.70;1.00
21590;DHT22;10957;50.968;6.828;2023-04-24T16:42:36;11.40;99.90
21590;DHT22;10957;50.968;6.828;2023-04-24T16:47:38;11.60;99.90
21590;DHT22;10957;50.968;6.828;2023-04-24T16:52:39;11.80;99.90
21590;DHT22;10957;50.968;6.828;2023-04-24T16:57:40;11.10;1.00
21590;DHT22;10957;50.968;6.828;2023-04-24T17:02:41;11.30;1.00
21590;DHT22;10957;50.968;6.828;2023-04-24T17:07:44;11.60;1.00
21590;DHT22;10957;50.968;6.828;2023-04-24T17:12:45;11.60;1.00
21590;DHT22;10957;50.968;6.828;2023-04-24T17:17:48;11.50;99.90
21590;DHT22;10957;50.968;6.828;2023-04-24T17:22:50;11.40;1.00
21590;DHT22;10957;50.968;6.828;2023-04-24T17:27:51;11.00;1.00
21590;DHT22;10957;50.968;6.828;2023-04-24T17:32:52;11.50;1.00
21590;DHT22;10957;50.968;6.828;2023-04-24T17:37:53;11.10;99.90
21590;DHT22;10957;50.968;6.828;2023-04-24T17:42:55;11.20;99.90
21590;DHT22;10957;50.968;6.828;2023-04-24T17:47:56;11.10;99.90
21590;DHT22;10957;50.968;6.828;2023-04-24T17:52:57;10.80;99.90
21590;DHT22;10957;50.968;6.828;2023-04-24T17:58:02;10.40;1.00
21590;DHT22;10957;50.968;6.828;2023-04-24T18:03:04;10.50;1.00
21590;DHT22;10957;50.968;6.828;2023-04-24T18:08:05;9.90;1.00
21590;DHT22;10957;50.968;6.828;2023-04-24T18:13:07;9.60;1.00
21590;DHT22;10957;50.968;6.828;2023-04-24T18:18:10;9.60;1.00
21590;DHT22;10957;50.968;6.828;2023-04-24T18:23:11;9.80;1.00
21590;DHT22;10957;50.968;6.828;2023-04-24T18:28:13;9.10;1.00
21590;DHT22;10957;50.968;6.828;2023-04-24T18:33:14;9.30;1.00
21590;DHT22;10957;50.968;6.828;2023-04-24T18:38:15;9.20;1.00
21590;DHT22;10957;50.968;6.828;2023-04-24T18:43:17;8.60;1.00
21590;DHT22;10957;50.968;6.828;2023-04-24T18:48:18;9.10;1.00
21590;DHT22;10957;50.968;6.828;2023-04-24T18:53:19;8.40;1.00
21590;DHT22;10957;50.968;6.828;2023-04-24T18:58:20;8.80;1.00
21590;DHT22;10957;50.968;6.828;2023-04-24T19:03:21;8.40;1.00
21590;DHT22;10957;50.968;6.828;2023-04-24T19:08:23;8.40;1.00
21590;DHT22;10957;50.968;6.828;2023-04-24T19:13:24;8.10;1.00
21590;DHT22;10957;50.968;6.828;2023-04-24T19:18:25;8.20;1.00
21590;DHT22;10957;50.968;6.828;2023-04-24T19:23:29;7.80;1.00
21590;DHT22;10957;50.968;6.828;2023-04-24T19:28:31;8.20;1.00
21590;DHT22;10957;50.968;6.828;2023-04-24T19:33:32;8.20;1.00
21590;DHT22;10957;50.968;6.828;2023-04-24T19:38:33;8.40;1.00
21590;DHT22;10957;50.968;6.828;2023-04-24T19:43:34;8.10;1.00
21590;DHT22;10957;50.968;6.828;2023-04-24T19:48:35;7.70;1.00
21590;DHT22;10957;50.968;6.828;2023-04-24T19:53:37;8.20;1.00
21590;DHT22;10957;50.968;6.828;2023-04-24T19:58:38;7.90;1.00
21590;DHT22;10957;50.968;6.828;2023-04-24T20:03:39;8.10;1.00
21590;DHT22;10957;50.968;6.828;2023-04-24T20:08:40;8.10;1.00
21590;DHT22;10957;50.968;6.828;2023-04-24T20:13:42;8.00;1.00
21590;DHT22;10957;50.968;6.828;2023-04-24T20:18:43;7.70;1.00
21590;DHT22;10957;50.968;6.828;2023-04-24T20:23:45;7.90;1.00
21590;DHT22;10957;50.968;6.828;2023-04-24T20:28:46;7.60;1.00
21590;DHT22;10957;50.968;6.828;2023-04-24T20:33:47;7.60;1.00
21590;DHT22;10957;50.968;6.828;2023-04-24T20:38:48;7.70;1.00
21590;DHT22;10957;50.968;6.828;2023-04-24T20:43:49;7.60;1.00
21590;DHT22;10957;50.968;6.828;2023-04-24T20:48:51;7.20;1.00
21590;DHT22;10957;50.968;6.828;2023-04-24T20:53:52;7.60;1.00
21590;DHT22;10957;50.968;6.828;2023-04-24T20:58:53;7.50;1.00
21590;DHT22;10957;50.968;6.828;2023-04-24T21:03:54;7.20;1.00
21590;DHT22;10957;50.968;6.828;2023-04-24T21:08:56;7.20;1.00
21590;DHT22;10957;50.968;6.828;2023-04-24T21:13:57;7.30;1.00
21590;DHT22;10957;50.968;6.828;2023-04-24T21:18:58;6.70;1.00
21590;DHT22;10957;50.968;6.828;2023-04-24T21:24:00;7.10;1.00
21590;DHT22;10957;50.968;6.828;2023-04-24T21:29:01;6.90;1.00
21590;DHT22;10957;50.968;6.828;2023-04-24T21:34:03;6.90;1.00
21590;DHT22;10957;50.968;6.828;2023-04-24T21:39:04;6.60;1.00
21590;DHT22;10957;50.968;6.828;2023-04-24T21:44:05;6.40;1.00
21590;DHT22;10957;50.968;6.828;2023-04-24T21:49:07;6.20;1.00
21590;DHT22;10957;50.968;6.828;2023-04-24T21:54:08;6.40;15.80
21590;DHT22;10957;50.968;6.828;2023-04-24T21:59:09;6.30;29.80
21590;DHT22;10957;50.968;6.828;2023-04-24T22:04:10;6.50;52.60
21590;DHT22;10957;50.968;6.828;2023-04-24T22:09:12;6.50;74.00
21590;DHT22;10957;50.968;6.828;2023-04-24T22:14:13;6.50;55.60
21590;DHT22;10957;50.968;6.828;2023-04-24T22:19:15;6.30;34.10
21590;DHT22;10957;50.968;6.828;2023-04-24T22:24:17;6.70;23.30
21590;DHT22;10957;50.968;6.828;2023-04-24T22:29:19;6.40;18.90
21590;DHT22;10957;50.968;6.828;2023-04-24T22:34:23;6.80;12.10
21590;DHT22;10957;50.968;6.828;2023-04-24T22:39:25;6.70;6.40
21590;DHT22;10957;50.968;6.828;2023-04-24T22:44:28;6.70;9.50
21590;DHT22;10957;50.968;6.828;2023-04-24T22:49:31;6.70;22.60
21590;DHT22;10957;50.968;6.828;2023-04-24T22:54:33;6.30;16.50
21590;DHT22;10957;50.968;6.828;2023-04-24T22:59:35;6.90;1.00
21590;DHT22;10957;50.968;6.828;2023-04-24T23:04:36;6.90;1.00
21590;DHT22;10957;50.968;6.828;2023-04-24T23:09:38;6.70;1.00
21590;DHT22;10957;50.968;6.828;2023-04-24T23:14:39;6.80;1.00
21590;DHT22;10957;50.968;6.828;2023-04-24T23:19:40;6.60;8.30
21590;DHT22;10957;50.968;6.828;2023-04-24T23:24:41;6.60;35.80
21590;DHT22;10957;50.968;6.828;2023-04-24T23:29:43;6.20;56.30
21590;DHT22;10957;50.968;6.828;2023-04-24T23:34:44;6.10;86.00
21590;DHT22;10957;50.968;6.828;2023-04-24T23:39:45;6.50;96.20
21590;DHT22;10957;50.968;6.828;2023-04-24T23:44:46;6.00;99.90
21590;DHT22;10957;50.968;6.828;2023-04-24T23:49:48;6.50;99.90
21590;DHT22;10957;50.968;6.828;2023-04-24T23:54:49;6.60;88.70
21590;DHT22;10957;50.968;6.828;2023-04-24T23:59:50;6.10;69.10
